Robinson, IL

7:10 PM CDT on August 18, 2017 (GMT -0500)
Robinson Municipal

Weather History for KRSV - November, 2013

Change the Weather History Date:

Tuesday, November 12, 2013

  Actual Average (KLWV) Record (KLWV)
Temperature  
Mean Temperature 32 °F -  
Max Temperature 39 °F 53 °F 76 °F (2010)
Min Temperature 24 °F 34 °F 23 °F (2013)
Degree Days  
Heating Degree Days 33    
Moisture  
Dew Point 26 °F    
Average Humidity 80    
Maximum Humidity 97    
Minimum Humidity 64    
Precipitation  
Precipitation 0.00 in - - ()
Sea Level Pressure  
Sea Level Pressure 30.64 in    
Wind  
Wind Speed 11 mph (NNW)    
Max Wind Speed 16 mph    
Max Gust Speed 22 mph    
Visibility 10 miles    
Events Snow    
Averages and records for this station are not official NWS values.
T = Trace of Precipitation, MM = Missing Value Source: NWS Daily Summary

Daily Weather History Graph

Daily Weather History Graph

Search for Another Location

Airport or City:

Trip Planner

Search our weather history database for the weather conditions in past years. The results will help you decide how hot, cold, wet, or windy it might be!

Date:

Astronomy

Nov. 12, 2013 Rise Set
Actual Time 6:30 AM CST 4:38 PM CST
Civil Twilight 6:02 AM CST 5:07 PM CST
Nautical Twilight 5:29 AM CST 5:39 PM CST
Astronomical Twilight 4:58 AM CST 6:10 PM CST
Moon 1:50 PM CST (11/12) 1:22 AM CST (11/12)
Length of Visible Light 11h 04m
Length of Day
10h 08m
Waxing Gibbous, 76% of the Moon is Illuminated
Nov 12
Waxing Gibbous
Nov 17
Full
Nov 25
Last Quarter
Dec 2
New
Dec 9
First Quarter

Hourly Weather History & Observations

Time (CST) Temp. Windchill Dew Point Humidity Pressure Visibility Wind Dir Wind Speed Gust Speed Precip Events Conditions
12:15 AM 34.3 °F 25.9 °F 33.4 °F 97% 30.43 in 4.0 mi North 11.5 mph - N/A Snow Light Snow
12:35 AM 34.2 °F 25.2 °F 33.3 °F 97% 30.43 in 4.0 mi North 12.7 mph - N/A Snow Light Snow
12:55 AM 34.2 °F 24.4 °F 33.1 °F 96% 30.44 in 10.0 mi North 15.0 mph 21.9 mph N/A Snow Light Snow
1:15 AM 34.3 °F 24.6 °F 32.5 °F 93% 30.44 in 10.0 mi North 15.0 mph 18.4 mph N/A   Overcast
1:35 AM 33.8 °F 24.3 °F 31.3 °F 90% 30.46 in 10.0 mi North 13.8 mph 20.7 mph N/A   Overcast
1:55 AM 33.1 °F 22.6 °F 30.2 °F 89% 30.47 in 10.0 mi North 16.1 mph 20.7 mph N/A   Overcast
2:15 AM 32.9 °F 22.4 °F 29.8 °F 88% 30.47 in 10.0 mi North 16.1 mph 19.6 mph N/A   Overcast
2:35 AM 32.7 °F 23.0 °F 29.3 °F 87% 30.49 in 10.0 mi North 13.8 mph 21.9 mph N/A   Overcast
2:55 AM 32.5 °F 22.7 °F 29.3 °F 88% 30.49 in 10.0 mi North 13.8 mph - N/A   Overcast
3:35 AM 32.0 °F 23.6 °F 27.9 °F 85% 30.51 in 10.0 mi North 10.4 mph 18.4 mph N/A   Overcast
3:55 AM 31.1 °F 21.9 °F 27.1 °F 85% 30.52 in 10.0 mi North 11.5 mph - N/A   Scattered Clouds
4:15 AM 30.7 °F 21.4 °F 26.4 °F 84% 30.52 in 10.0 mi North 11.5 mph - N/A   Clear
4:35 AM 30.2 °F 20.8 °F 25.7 °F 83% 30.54 in 10.0 mi North 11.5 mph 17.3 mph N/A   Clear
4:55 AM 29.7 °F 20.1 °F 25.5 °F 85% 30.55 in 10.0 mi North 11.5 mph 17.3 mph N/A   Clear
5:15 AM 29.3 °F 20.8 °F 24.8 °F 83% 30.57 in 10.0 mi North 9.2 mph 16.1 mph N/A   Clear
5:35 AM 28.8 °F 19.5 °F 24.3 °F 83% 30.57 in 10.0 mi North 10.4 mph - N/A   Clear
5:55 AM 28.2 °F 19.5 °F 24.1 °F 84% 30.59 in 10.0 mi NNW 9.2 mph - N/A   Clear
6:15 AM 28.0 °F 18.6 °F 23.7 °F 84% 30.60 in 10.0 mi North 10.4 mph 17.3 mph N/A   Clear
6:35 AM 27.7 °F 18.2 °F 23.2 °F 83% 30.61 in 10.0 mi North 10.4 mph - N/A   Clear
6:55 AM 27.3 °F 18.4 °F 23.2 °F 84% 30.63 in 10.0 mi North 9.2 mph - N/A   Clear
7:15 AM 27.9 °F 17.3 °F 23.5 °F 84% 30.64 in 10.0 mi North 12.7 mph - N/A   Clear
7:35 AM 28.2 °F 19.5 °F 23.9 °F 84% 30.65 in 10.0 mi NNW 9.2 mph - N/A   Clear
7:55 AM 28.6 °F 18.7 °F 23.9 °F 83% 30.67 in 10.0 mi NNW 11.5 mph - N/A   Clear
8:15 AM 29.3 °F 20.2 °F 24.4 °F 82% 30.67 in 10.0 mi North 10.4 mph - N/A   Clear
8:35 AM 30.2 °F 21.9 °F 24.8 °F 80% 30.68 in 10.0 mi North 9.2 mph - N/A   Clear
8:55 AM 30.9 °F 22.2 °F 25.3 °F 80% 30.68 in 10.0 mi North 10.4 mph - N/A   Clear
9:15 AM 31.6 °F 24.4 °F 25.7 °F 79% 30.68 in 10.0 mi North 8.1 mph - N/A   Clear
9:35 AM 32.4 °F 23.5 °F 27.0 °F 80% 30.68 in 10.0 mi NNW 11.5 mph - N/A   Clear
9:55 AM 32.9 °F 24.7 °F 26.8 °F 78% 30.69 in 10.0 mi North 10.4 mph - N/A   Clear
10:15 AM 33.8 °F 26.4 °F 27.3 °F 77% 30.69 in 10.0 mi North 9.2 mph - N/A   Clear
10:35 AM 35.6 °F 28.0 °F 28.9 °F 77% 30.69 in 10.0 mi North 10.4 mph - N/A   Clear
10:55 AM 35.6 °F 27.5 °F 28.4 °F 75% 30.69 in 10.0 mi NNW 11.5 mph 16.1 mph N/A   Clear
11:15 AM 36.3 °F 28.4 °F 29.5 °F 76% 30.69 in 10.0 mi NNW 11.5 mph - N/A   Scattered Clouds
11:35 AM 36.9 °F 29.6 °F 28.6 °F 72% 30.68 in 10.0 mi North 10.4 mph - N/A   Scattered Clouds
11:55 AM 37.6 °F 30.0 °F 28.0 °F 68% 30.67 in 10.0 mi NNW 11.5 mph - N/A   Scattered Clouds
12:15 PM 36.7 °F 29.4 °F 26.4 °F 66% 30.67 in 10.0 mi North 10.4 mph 16.1 mph N/A   Scattered Clouds
12:35 PM 37.9 °F 30.0 °F 26.8 °F 64% 30.67 in 10.0 mi North 12.7 mph 21.9 mph N/A   Scattered Clouds
12:55 PM 37.8 °F 29.4 °F 27.0 °F 65% 30.67 in 10.0 mi North 13.8 mph 18.4 mph N/A   Scattered Clouds
1:15 PM 38.1 °F 29.1 °F 27.9 °F 67% 30.67 in 10.0 mi NNW 16.1 mph 20.7 mph N/A   Scattered Clouds
1:35 PM 39.6 °F 32.1 °F 28.8 °F 65% 30.67 in 10.0 mi North 12.7 mph - N/A   Mostly Cloudy
1:55 PM 37.9 °F 30.5 °F 27.0 °F 65% 30.67 in 10.0 mi North 11.5 mph 17.3 mph N/A   Mostly Cloudy
2:15 PM 38.1 °F 29.8 °F 27.3 °F 65% 30.68 in 10.0 mi NNW 13.8 mph 17.3 mph N/A   Scattered Clouds
2:35 PM 36.5 °F 28.7 °F 25.7 °F 65% 30.68 in 10.0 mi North 11.5 mph - N/A   Scattered Clouds
2:55 PM 35.6 °F 27.5 °F 25.9 °F 68% 30.68 in 10.0 mi North 11.5 mph - N/A   Scattered Clouds
3:15 PM 36.7 °F 29.4 °F 27.3 °F 69% 30.68 in 10.0 mi North 10.4 mph 16.1 mph N/A   Clear
3:35 PM 36.5 °F 28.7 °F 26.4 °F 67% 30.69 in 10.0 mi NNW 11.5 mph - N/A   Scattered Clouds
3:55 PM 36.1 °F 29.3 °F 25.9 °F 66% 30.69 in 10.0 mi North 9.2 mph - N/A   Scattered Clouds
4:15 PM 34.9 °F 27.7 °F 26.2 °F 71% 30.69 in 10.0 mi NNW 9.2 mph - N/A   Scattered Clouds
4:35 PM 34.0 °F 26.6 °F 25.3 °F 71% 30.69 in 10.0 mi NNW 9.2 mph - N/A   Scattered Clouds
4:55 PM 32.9 °F 25.9 °F 24.8 °F 72% 30.69 in 10.0 mi NNW 8.1 mph - N/A   Scattered Clouds
5:15 PM 32.2 °F 25.8 °F 25.0 °F 75% 30.69 in 10.0 mi NW 6.9 mph - N/A   Clear
5:35 PM 32.0 °F 24.8 °F 25.5 °F 77% 30.69 in 10.0 mi NW 8.1 mph - N/A   Clear
5:55 PM 31.5 °F 25.8 °F 25.3 °F 78% 30.68 in 10.0 mi NW 5.8 mph - N/A   Clear
6:15 PM 31.1 °F 24.5 °F 25.2 °F 79% 30.68 in 10.0 mi NW 6.9 mph - N/A   Clear
6:35 PM 30.7 °F 24.1 °F 24.8 °F 79% 30.69 in 10.0 mi NW 6.9 mph - N/A   Clear
6:55 PM 30.2 °F 24.3 °F 24.8 °F 80% 30.69 in 10.0 mi NW 5.8 mph - N/A   Clear
7:15 PM 30.0 °F 24.1 °F 24.6 °F 80% 30.69 in 10.0 mi NW 5.8 mph - N/A   Clear
7:35 PM 29.3 °F 23.2 °F 24.4 °F 82% 30.70 in 10.0 mi NW 5.8 mph - N/A   Clear
7:55 PM 29.3 °F 24.3 °F 24.4 °F 82% 30.70 in 10.0 mi NW 4.6 mph - N/A   Clear
8:15 PM 28.4 °F 23.3 °F 24.1 °F 84% 30.70 in 10.0 mi NW 4.6 mph - N/A   Clear
8:35 PM 28.2 °F 23.1 °F 23.9 °F 84% 30.70 in 10.0 mi NNW 4.6 mph - N/A   Clear
8:55 PM 27.5 °F - 23.4 °F 84% 30.71 in 10.0 mi Calm Calm - N/A   Clear
9:15 PM 27.3 °F 23.4 °F 23.2 °F 84% 30.71 in 10.0 mi NW 3.5 mph - N/A   Clear
9:35 PM 26.6 °F - 23.0 °F 86% 30.71 in 10.0 mi Calm Calm - N/A   Clear
9:55 PM 26.2 °F 22.1 °F 22.8 °F 87% 30.71 in 10.0 mi NW 3.5 mph - N/A   Clear
10:15 PM 26.1 °F 21.9 °F 22.8 °F 88% 30.71 in 10.0 mi NW 3.5 mph - N/A   Clear
10:35 PM 25.3 °F 19.7 °F 22.5 °F 89% 30.70 in 10.0 mi WNW 4.6 mph - N/A   Clear
10:55 PM 25.5 °F 21.3 °F 22.8 °F 89% 30.69 in 10.0 mi West 3.5 mph - N/A   Clear
11:15 PM 25.2 °F - 23.0 °F 91% 30.69 in 10.0 mi Calm Calm - N/A   Clear
11:35 PM 25.0 °F 19.3 °F 23.4 °F 94% 30.69 in 10.0 mi West 4.6 mph - N/A   Clear
11:55 PM 24.8 °F 20.5 °F 23.0 °F 93% 30.68 in 10.0 mi WNW 3.5 mph - N/A   Clear